Time;durP1;ratioP1;P1;durP2;ratioP2;P2;SDS_P1;SDS_P2;PMS_P1;PMS_P2;Temp;Humidity;BMP_temperature;BMP_pressure;BME280_temperature;BME280_humidity;BME280_pressure;Samples;Min_cycle;Max_cycle;Signal;HPM_P1;HPM_P2
2023/12/22 00:02:04;;;;;;;1.27;0.40;;;2.90;95.60;;;;;;5019048;28;20141;-72
2023/12/22 00:04:30;;;;;;;0.50;0.40;;;2.90;95.70;;;;;;5012508;28;20112;-72
2023/12/22 00:06:55;;;;;;;0.50;0.50;;;3.00;95.40;;;;;;5020022;28;20485;-73
2023/12/22 00:09:20;;;;;;;1.63;0.70;;;3.10;95.50;;;;;;5014033;28;20041;-72
2023/12/22 00:11:46;;;;;;;1.65;0.40;;;3.10;95.60;;;;;;5018657;28;20037;-73
2023/12/22 00:14:12;;;;;;;0.30;0.30;;;3.10;95.50;;;;;;5014542;28;20489;-73
2023/12/22 00:16:38;;;;;;;2.65;1.00;;;3.20;95.40;;;;;;5019914;28;20390;-73
2023/12/22 00:19:04;;;;;;;4.63;1.23;;;3.20;95.20;;;;;;5017917;28;20037;-73
2023/12/22 00:21:29;;;;;;;2.35;1.02;;;3.30;95.20;;;;;;5018782;28;20048;-73
2023/12/22 00:23:55;;;;;;;0.55;0.55;;;3.20;95.30;;;;;;5013064;28;20041;-73
2023/12/22 00:26:20;;;;;;;0.98;0.70;;;3.20;95.10;;;;;;5024424;28;20366;-73
2023/12/22 00:28:46;;;;;;;1.33;0.50;;;3.20;95.10;;;;;;5012341;28;20076;-72
2023/12/22 00:31:14;;;;;;;2.45;0.50;;;3.20;95.10;;;;;;5018798;28;20377;-74
2023/12/22 00:33:40;;;;;;;1.05;0.60;;;3.10;95.30;;;;;;5013732;28;20030;-74
2023/12/22 00:36:06;;;;;;;1.48;0.43;;;3.20;95.20;;;;;;5023484;28;20099;-73
2023/12/22 00:38:32;;;;;;;2.05;0.52;;;3.20;95.60;;;;;;5016570;28;20030;-74
2023/12/22 00:40:57;;;;;;;0.63;0.43;;;3.20;95.50;;;;;;5026818;28;20021;-74
2023/12/22 00:43:23;;;;;;;3.70;0.52;;;3.20;95.60;;;;;;5015427;28;20114;-73
2023/12/22 00:45:48;;;;;;;1.45;0.55;;;3.30;95.80;;;;;;5013663;28;20453;-74
2023/12/22 00:48:14;;;;;;;2.20;0.60;;;3.20;96.20;;;;;;5019908;28;20041;-73
2023/12/22 00:50:39;;;;;;;1.58;0.47;;;3.10;95.60;;;;;;5025992;28;20037;-74
2023/12/22 00:53:04;;;;;;;0.57;0.28;;;3.00;94.90;;;;;;5020003;28;20084;-74
2023/12/22 00:55:30;;;;;;;2.10;0.63;;;2.80;94.50;;;;;;5022680;28;20040;-73
2023/12/22 00:57:55;;;;;;;0.75;0.40;;;2.60;94.70;;;;;;5023360;28;20449;-72
2023/12/22 01:00:21;;;;;;;0.63;0.40;;;2.30;94.40;;;;;;5017916;28;20200;-72
2023/12/22 01:02:46;;;;;;;1.10;0.63;;;2.20;95.00;;;;;;5023516;28;20029;-73
2023/12/22 01:05:12;;;;;;;2.72;1.35;;;2.20;95.30;;;;;;5024859;28;20350;-73
2023/12/22 01:07:37;;;;;;;3.03;0.50;;;2.30;95.60;;;;;;5021524;28;20097;-73
2023/12/22 01:10:03;;;;;;;1.58;0.63;;;2.30;95.60;;;;;;5019505;28;20409;-72
2023/12/22 01:12:30;;;;;;;1.75;0.57;;;2.30;95.90;;;;;;5021015;28;20458;-74
2023/12/22 01:14:58;;;;;;;0.95;0.57;;;2.40;96.10;;;;;;5016078;28;20037;-73
2023/12/22 01:17:24;;;;;;;0.57;0.40;;;2.60;96.10;;;;;;5019699;28;20461;-74
2023/12/22 01:19:50;;;;;;;0.32;0.30;;;2.80;95.80;;;;;;5024908;28;20040;-73
2023/12/22 01:22:16;;;;;;;1.45;0.80;;;3.00;95.30;;;;;;5020467;28;20030;-74
2023/12/22 01:24:43;;;;;;;3.35;0.47;;;3.10;94.90;;;;;;5019861;28;20031;-73
2023/12/22 01:27:09;;;;;;;2.35;0.50;;;3.00;94.90;;;;;;5021237;28;20466;-74
2023/12/22 01:29:35;;;;;;;0.85;0.75;;;3.00;94.80;;;;;;5022813;28;20128;-73
2023/12/22 01:32:00;;;;;;;1.13;0.50;;;2.90;94.60;;;;;;5017093;28;20354;-74
2023/12/22 01:34:26;;;;;;;1.13;0.30;;;3.00;94.60;;;;;;5026043;28;20029;-73
2023/12/22 01:36:51;;;;;;;1.40;0.57;;;2.90;94.80;;;;;;5025806;28;20096;-74
2023/12/22 01:39:17;;;;;;;0.85;0.22;;;2.90;94.80;;;;;;5019681;28;20033;-74
2023/12/22 01:41:42;;;;;;;2.60;0.75;;;3.00;94.50;;;;;;5021427;28;20168;-72
2023/12/22 01:44:08;;;;;;;1.58;0.35;;;3.10;94.10;;;;;;5018629;28;20056;-73
2023/12/22 01:46:35;;;;;;;2.83;0.25;;;3.10;94.20;;;;;;5023257;28;20126;-72
2023/12/22 01:49:01;;;;;;;2.13;0.50;;;3.20;93.80;;;;;;5019747;28;20103;-73
2023/12/22 01:51:29;;;;;;;0.88;0.60;;;3.20;94.20;;;;;;5021822;28;20042;-73
2023/12/22 01:53:54;;;;;;;1.30;0.47;;;3.20;94.30;;;;;;5015583;28;20315;-73
2023/12/22 01:56:20;;;;;;;0.80;0.40;;;3.40;94.00;;;;;;5027658;28;20109;-73
2023/12/22 01:58:46;;;;;;;1.10;0.45;;;3.30;94.50;;;;;;5020705;28;20120;-73
2023/12/22 02:01:12;;;;;;;3.42;1.75;;;3.30;94.40;;;;;;5017885;28;20075;-73
2023/12/22 02:03:38;;;;;;;1.35;0.50;;;3.30;94.30;;;;;;5012973;28;20073;-74
2023/12/22 02:06:05;;;;;;;3.20;0.70;;;3.20;94.40;;;;;;5024835;28;20446;-72
2023/12/22 02:08:33;;;;;;;0.30;0.22;;;3.20;94.80;;;;;;5021536;28;20076;-73
2023/12/22 02:10:58;;;;;;;4.13;0.90;;;3.20;94.80;;;;;;5015645;28;20030;-72
2023/12/22 02:13:24;;;;;;;1.30;0.38;;;3.30;94.60;;;;;;5017019;28;20029;-72
2023/12/22 02:16:02;;;;;;;1.02;0.38;;;3.30;94.80;;;;;;5014190;28;20068;-73
2023/12/22 02:18:34;;;;;;;0.52;0.45;;;3.40;94.70;;;;;;5018932;28;20041;-73
2023/12/22 02:21:00;;;;;;;2.10;0.45;;;3.40;95.00;;;;;;5022830;28;20051;-72
2023/12/22 02:23:26;;;;;;;1.08;0.52;;;3.50;95.00;;;;;;5019932;28;20081;-72
2023/12/22 02:26:02;;;;;;;0.57;0.28;;;3.60;94.50;;;;;;5028119;28;20466;-73
2023/12/22 02:28:28;;;;;;;4.50;0.77;;;3.70;94.10;;;;;;5022822;28;20397;-74
2023/12/22 02:31:18;;;;;;;0.95;0.47;;;3.70;93.80;;;;;;5023377;28;20038;-71
2023/12/22 02:33:45;;;;;;;0.65;0.40;;;3.70;93.60;;;;;;5019606;28;20022;-73
2023/12/22 02:36:13;;;;;;;0.93;0.63;;;3.70;93.20;;;;;;5021882;28;20461;-73
2023/12/22 02:38:40;;;;;;;4.97;0.73;;;3.70;93.10;;;;;;5019874;28;20418;-73
2023/12/22 02:41:06;;;;;;;3.03;0.85;;;3.70;92.30;;;;;;5026511;28;20111;-72
2023/12/22 02:43:32;;;;;;;1.73;0.40;;;3.80;91.70;;;;;;5021896;28;20021;-75
2023/12/22 02:45:57;;;;;;;1.77;0.63;;;3.80;92.00;;;;;;5021389;28;20144;-74
2023/12/22 02:48:23;;;;;;;2.97;0.77;;;3.80;91.40;;;;;;5018693;28;20049;-74
2023/12/22 02:50:48;;;;;;;3.50;1.02;;;3.80;91.70;;;;;;5021677;28;20485;-74
2023/12/22 02:53:14;;;;;;;7.65;1.08;;;3.90;91.30;;;;;;5021586;28;20051;-74
2023/12/22 02:55:39;;;;;;;1.33;0.73;;;3.90;90.90;;;;;;5022709;28;20029;-73
2023/12/22 02:58:05;;;;;;;1.05;0.50;;;3.80;91.00;;;;;;5020581;28;20143;-73
2023/12/22 03:00:30;;;;;;;4.90;1.05;;;3.90;90.00;;;;;;5014231;28;20176;-75
2023/12/22 03:02:56;;;;;;;2.10;0.45;;;3.90;90.20;;;;;;5019438;28;20086;-74
2023/12/22 03:05:21;;;;;;;1.85;0.63;;;3.90;89.50;;;;;;5015756;28;20030;-74
2023/12/22 03:07:47;;;;;;;1.90;0.55;;;3.90;89.40;;;;;;5019064;28;20427;-73
2023/12/22 03:10:12;;;;;;;4.70;0.93;;;3.80;89.60;;;;;;5019472;28;20095;-74
2023/12/22 03:12:37;;;;;;;1.25;0.55;;;4.00;89.10;;;;;;5020874;28;20026;-74
2023/12/22 03:15:04;;;;;;;2.60;0.60;;;4.00;89.30;;;;;;5015333;28;20033;-74
2023/12/22 03:17:30;;;;;;;6.65;0.77;;;4.10;89.00;;;;;;5023242;28;20361;-73
2023/12/22 03:19:55;;;;;;;0.65;0.55;;;4.00;90.00;;;;;;5020962;28;20060;-73
2023/12/22 03:22:21;;;;;;;2.25;0.65;;;3.90;90.40;;;;;;5021231;28;20048;-73
2023/12/22 03:24:46;;;;;;;1.20;0.45;;;3.60;91.50;;;;;;5023245;28;20033;-72
2023/12/22 03:27:16;;;;;;;1.42;0.47;;;3.30;92.20;;;;;;5020436;28;20129;-72
2023/12/22 03:29:43;;;;;;;3.53;0.63;;;3.00;93.10;;;;;;5017372;28;20366;-72
2023/12/22 03:32:09;;;;;;;0.90;0.20;;;2.80;93.10;;;;;;5030833;28;20464;-73
2023/12/22 03:34:34;;;;;;;5.18;0.63;;;2.60;93.00;;;;;;5023199;28;20104;-74
2023/12/22 03:37:00;;;;;;;0.40;0.40;;;2.60;93.50;;;;;;5019543;28;20078;-73
2023/12/22 03:39:25;;;;;;;2.65;0.60;;;2.50;93.80;;;;;;5020615;28;20037;-74
2023/12/22 03:41:51;;;;;;;1.17;0.40;;;2.50;94.00;;;;;;5014581;28;20018;-73
2023/12/22 03:44:16;;;;;;;2.13;1.23;;;2.50;94.10;;;;;;5023453;28;20051;-74
2023/12/22 03:46:42;;;;;;;0.45;0.30;;;2.30;94.10;;;;;;5027672;28;20354;-74
2023/12/22 03:49:07;;;;;;;1.15;0.40;;;2.30;94.40;;;;;;5020862;28;20038;-73
2023/12/22 03:51:33;;;;;;;4.60;0.50;;;2.10;94.50;;;;;;5018539;28;20437;-74
2023/12/22 03:53:58;;;;;;;2.92;0.63;;;2.10;94.60;;;;;;5021541;28;20045;-74
2023/12/22 03:56:24;;;;;;;2.03;0.68;;;2.10;94.60;;;;;;5020459;28;20033;-73
2023/12/22 03:58:49;;;;;;;0.25;0.22;;;2.30;94.60;;;;;;5015672;28;20033;-73
2023/12/22 04:01:15;;;;;;;0.82;0.50;;;2.50;94.10;;;;;;5014466;28;20054;-74
2023/12/22 04:03:40;;;;;;;0.60;0.30;;;2.60;93.60;;;;;;5033134;28;20394;-74
2023/12/22 04:06:06;;;;;;;2.40;0.60;;;2.60;93.40;;;;;;5018723;28;20434;-73
2023/12/22 04:08:31;;;;;;;2.58;0.73;;;2.70;93.20;;;;;;5018993;28;20479;-73
2023/12/22 04:10:57;;;;;;;4.03;0.85;;;2.70;93.20;;;;;;5021971;28;20141;-73
2023/12/22 04:13:22;;;;;;;4.45;0.70;;;3.00;93.20;;;;;;5017841;28;20064;-74
2023/12/22 04:15:48;;;;;;;6.93;0.63;;;2.90;93.30;;;;;;5018247;28;20030;-73
2023/12/22 04:18:13;;;;;;;1.70;0.70;;;2.90;93.00;;;;;;5021649;28;20364;-75
2023/12/22 04:20:39;;;;;;;1.20;0.75;;;2.90;93.00;;;;;;5016008;28;20081;-73
2023/12/22 04:23:04;;;;;;;0.38;0.38;;;3.00;92.80;;;;;;5024200;28;20140;-74
2023/12/22 04:25:30;;;;;;;1.73;0.80;;;3.00;92.30;;;;;;5020778;28;20532;-74
2023/12/22 04:27:55;;;;;;;1.17;0.35;;;2.90;92.30;;;;;;5024159;28;20049;-74
2023/12/22 04:30:21;;;;;;;2.60;0.65;;;3.00;92.40;;;;;;5019734;28;20368;-74
2023/12/22 04:32:46;;;;;;;3.97;0.68;;;3.00;91.90;;;;;;5026410;28;20079;-74
2023/12/22 04:35:12;;;;;;;0.85;0.40;;;3.10;91.90;;;;;;5025552;28;20041;-74
2023/12/22 04:37:37;;;;;;;3.63;0.95;;;3.10;92.20;;;;;;5020493;28;20101;-74
2023/12/22 04:40:03;;;;;;;0.85;0.40;;;3.10;92.60;;;;;;5022380;28;20116;-74
2023/12/22 04:42:29;;;;;;;0.57;0.47;;;3.20;92.50;;;;;;5021701;28;20037;-74
2023/12/22 04:44:54;;;;;;;3.33;0.80;;;3.10;93.30;;;;;;5016797;28;20029;-73
2023/12/22 04:47:20;;;;;;;2.33;0.25;;;3.10;93.60;;;;;;5017038;28;20113;-74
2023/12/22 04:49:46;;;;;;;1.65;0.38;;;3.10;93.90;;;;;;5020812;28;20057;-75
2023/12/22 04:52:11;;;;;;;1.75;0.80;;;3.10;93.80;;;;;;5020205;28;20104;-74
2023/12/22 04:54:37;;;;;;;7.18;0.57;;;3.20;93.30;;;;;;5021703;28;20118;-75
2023/12/22 04:57:03;;;;;;;0.93;0.30;;;3.20;92.40;;;;;;5021529;28;20381;-74
2023/12/22 04:59:29;;;;;;;1.80;0.57;;;3.20;92.00;;;;;;5017746;28;20465;-73
2023/12/22 05:01:54;;;;;;;1.45;0.65;;;3.30;91.30;;;;;;5016010;28;20082;-73
2023/12/22 05:04:21;;;;;;;1.08;0.30;;;3.30;90.90;;;;;;5023956;28;20037;-74
2023/12/22 05:06:47;;;;;;;0.98;0.38;;;3.30;91.40;;;;;;5019269;28;20053;-75
2023/12/22 05:09:12;;;;;;;0.50;0.20;;;2.90;91.80;;;;;;5020636;28;20157;-73
2023/12/22 05:11:38;;;;;;;3.25;0.30;;;2.80;92.60;;;;;;5017195;28;20551;-75
2023/12/22 05:14:03;;;;;;;0.75;0.40;;;2.70;92.30;;;;;;5013800;28;20041;-73
2023/12/22 05:16:31;;;;;;;0.63;0.20;;;2.60;91.90;;;;;;5017036;28;20040;-74
2023/12/22 05:18:59;;;;;;;0.43;0.20;;;2.60;91.30;;;;;;5017640;28;20030;-73
2023/12/22 05:21:25;;;;;;;0.80;0.20;;;2.40;91.40;;;;;;5021593;28;20049;-74
2023/12/22 05:23:51;;;;;;;0.20;0.20;;;2.60;89.90;;;;;;5016205;28;20030;-74
2023/12/22 05:26:29;;;;;;;1.15;0.68;;;2.60;90.10;;;;;;5012028;28;20080;-75
2023/12/22 05:28:55;;;;;;;0.20;0.20;;;2.40;92.00;;;;;;5020100;28;20037;-76
2023/12/22 05:31:20;;;;;;;0.10;0.10;;;2.20;92.90;;;;;;5021722;28;20367;-77
2023/12/22 05:33:46;;;;;;;0.20;0.20;;;2.20;92.60;;;;;;5018204;28;20018;-77
2023/12/22 05:36:11;;;;;;;0.20;0.17;;;2.10;92.60;;;;;;5010954;28;20045;-75
2023/12/22 05:38:40;;;;;;;0.10;0.10;;;2.10;92.40;;;;;;5018686;28;20033;-77
2023/12/22 05:41:06;;;;;;;0.10;0.10;;;2.20;91.80;;;;;;5014893;28;20033;-76
2023/12/22 05:43:33;;;;;;;0.47;0.20;;;2.30;91.20;;;;;;5013872;28;20171;-72
2023/12/22 05:45:58;;;;;;;0.40;0.35;;;2.40;90.70;;;;;;5016548;28;20411;-77
2023/12/22 05:48:24;;;;;;;0.40;0.15;;;2.40;90.60;;;;;;5022007;28;20029;-76
2023/12/22 05:50:50;;;;;;;4.40;0.30;;;2.30;91.10;;;;;;5020516;28;20166;-76
2023/12/22 05:53:15;;;;;;;0.77;0.38;;;2.50;90.90;;;;;;5017448;28;20052;-76
2023/12/22 05:55:41;;;;;;;5.00;0.73;;;2.50;90.80;;;;;;5023993;28;20030;-77
2023/12/22 05:58:06;;;;;;;4.78;1.08;;;2.50;91.00;;;;;;5015570;28;20521;-76
2023/12/22 06:00:32;;;;;;;3.42;0.30;;;2.60;90.40;;;;;;5013011;28;20127;-77
2023/12/22 06:02:57;;;;;;;0.28;0.28;;;2.70;90.10;;;;;;5019912;28;20030;-78
2023/12/22 06:05:23;;;;;;;0.73;0.60;;;2.70;90.20;;;;;;5022646;28;20537;-77
2023/12/22 06:07:48;;;;;;;2.38;0.95;;;2.70;90.10;;;;;;5015759;28;20099;-78
2023/12/22 06:10:14;;;;;;;0.47;0.32;;;2.80;90.00;;;;;;5019141;28;20095;-78
2023/12/22 06:12:39;;;;;;;1.13;0.68;;;2.80;90.20;;;;;;5022643;28;20133;-76
2023/12/22 06:15:05;;;;;;;3.97;0.65;;;2.80;90.10;;;;;;5022554;28;20034;-78
2023/12/22 06:17:31;;;;;;;1.35;0.57;;;2.90;89.90;;;;;;5018435;28;20328;-75
2023/12/22 06:19:56;;;;;;;1.45;0.77;;;2.90;89.60;;;;;;5024798;28;20171;-76
2023/12/22 06:22:23;;;;;;;0.22;0.20;;;3.00;89.60;;;;;;5016502;28;20136;-78
2023/12/22 06:24:49;;;;;;;0.40;0.40;;;3.00;89.60;;;;;;5017687;28;20113;-78
2023/12/22 06:27:14;;;;;;;1.77;0.45;;;3.10;89.80;;;;;;5013977;28;20136;-77
2023/12/22 06:29:40;;;;;;;1.95;0.75;;;3.10;89.80;;;;;;5024714;28;20121;-77
2023/12/22 06:32:06;;;;;;;1.70;0.55;;;3.10;90.20;;;;;;5018967;28;20026;-76
2023/12/22 06:34:32;;;;;;;0.50;0.30;;;3.30;89.10;;;;;;5019224;28;20025;-77
2023/12/22 06:36:57;;;;;;;0.32;0.17;;;3.20;90.00;;;;;;5018159;28;20033;-75
2023/12/22 06:39:23;;;;;;;1.55;0.63;;;3.10;91.30;;;;;;5022526;28;20087;-75
2023/12/22 06:41:48;;;;;;;2.08;0.77;;;2.60;91.90;;;;;;5023088;28;20458;-77
2023/12/22 06:44:14;;;;;;;0.20;0.20;;;2.50;92.00;;;;;;5019193;28;20061;-76
2023/12/22 06:46:39;;;;;;;3.38;1.35;;;2.40;92.20;;;;;;5021970;28;20449;-77
2023/12/22 06:49:05;;;;;;;0.50;0.38;;;2.50;92.10;;;;;;5019268;28;20103;-77
2023/12/22 06:51:31;;;;;;;1.08;0.20;;;2.40;92.10;;;;;;5016192;28;20030;-75
2023/12/22 06:53:57;;;;;;;1.13;0.65;;;2.50;91.90;;;;;;5018822;28;20052;-77
2023/12/22 06:56:27;;;;;;;2.17;0.85;;;2.40;91.90;;;;;;5016350;28;20112;-74
2023/12/22 06:58:57;;;;;;;3.63;0.55;;;2.50;91.50;;;;;;5015810;28;20537;-74
2023/12/22 07:01:33;;;;;;;1.30;0.55;;;2.80;89.90;;;;;;5019475;28;20025;-75
2023/12/22 07:04:02;;;;;;;6.25;0.88;;;3.00;88.00;;;;;;5019257;28;20037;-77
2023/12/22 07:06:32;;;;;;;5.20;1.48;;;3.30;85.30;;;;;;5024705;28;20071;-77
2023/12/22 07:09:19;;;;;;;1.50;0.40;;;3.30;85.10;;;;;;5016698;28;20091;-77
2023/12/22 07:11:53;;;;;;;4.07;0.55;;;3.10;85.10;;;;;;5011028;28;20815;-77
2023/12/22 07:14:18;;;;;;;4.78;1.00;;;3.30;84.30;;;;;;5017293;28;20026;-77
2023/12/22 07:16:44;;;;;;;3.30;0.65;;;3.20;84.70;;;;;;5014884;28;20028;-77
2023/12/22 07:19:12;;;;;;;1.15;0.70;;;3.10;85.20;;;;;;5010252;28;20041;-76
2023/12/22 07:21:38;;;;;;;3.53;0.60;;;3.10;86.10;;;;;;5019067;28;20117;-78
2023/12/22 07:24:05;;;;;;;1.90;1.67;;;3.10;86.90;;;;;;5017063;28;20555;-77
2023/12/22 07:26:30;;;;;;;0.77;0.30;;;3.30;86.50;;;;;;5010871;28;20053;-78
2023/12/22 07:28:56;;;;;;;1.63;0.47;;;3.30;87.50;;;;;;5016223;28;20033;-77
2023/12/22 07:31:22;;;;;;;1.10;0.47;;;3.20;88.40;;;;;;5014080;28;20029;-77
2023/12/22 07:33:47;;;;;;;1.92;0.28;;;3.20;88.40;;;;;;5017318;28;20045;-78
2023/12/22 07:36:13;;;;;;;4.32;1.55;;;3.20;88.90;;;;;;5011220;28;20029;-78
2023/12/22 07:38:39;;;;;;;3.47;0.77;;;3.10;89.80;;;;;;5012841;28;20642;-77
2023/12/22 07:41:04;;;;;;;3.95;0.68;;;3.20;89.50;;;;;;5017550;28;20065;-77
2023/12/22 07:43:30;;;;;;;2.28;0.82;;;3.30;89.10;;;;;;5016055;28;20045;-78
2023/12/22 07:45:56;;;;;;;2.78;0.60;;;3.30;89.00;;;;;;5016963;28;20030;-78
2023/12/22 07:48:21;;;;;;;1.80;0.70;;;3.30;89.40;;;;;;5013936;28;20086;-76
2023/12/22 07:50:47;;;;;;;1.73;0.57;;;3.00;90.20;;;;;;5022543;28;20426;-76
2023/12/22 07:53:12;;;;;;;2.10;0.60;;;3.00;90.40;;;;;;5017014;28;20757;-77
2023/12/22 07:55:38;;;;;;;1.88;0.60;;;2.90;90.80;;;;;;5012563;28;20030;-76
2023/12/22 07:58:05;;;;;;;1.85;0.68;;;2.80;91.30;;;;;;5024389;28;20136;-73
2023/12/22 08:00:30;;;;;;;1.17;0.50;;;2.80;91.60;;;;;;5014952;28;20462;-75
2023/12/22 08:02:56;;;;;;;0.85;0.38;;;2.70;91.50;;;;;;5020043;28;20072;-76
2023/12/22 08:05:21;;;;;;;1.33;0.55;;;2.70;91.70;;;;;;5020700;28;20132;-76
2023/12/22 08:07:47;;;;;;;2.80;1.23;;;2.70;91.40;;;;;;5013958;28;20055;-76
2023/12/22 08:10:12;;;;;;;0.85;0.63;;;2.70;91.20;;;;;;5016929;28;20034;-75
2023/12/22 08:12:38;;;;;;;0.82;0.50;;;2.80;91.00;;;;;;5022742;28;20041;-77
2023/12/22 08:15:04;;;;;;;2.20;0.57;;;3.00;89.70;;;;;;5015539;28;20032;-77
2023/12/22 08:17:29;;;;;;;3.60;0.80;;;3.10;88.70;;;;;;5024719;28;20103;-77
2023/12/22 08:19:56;;;;;;;1.95;0.65;;;3.10;88.40;;;;;;5030595;28;20030;-77
2023/12/22 08:22:22;;;;;;;1.50;0.50;;;3.10;88.60;;;;;;5021256;28;20180;-77
2023/12/22 08:24:48;;;;;;;4.63;1.05;;;3.10;88.80;;;;;;5018825;28;20053;-76
2023/12/22 08:27:13;;;;;;;4.53;1.00;;;3.40;88.10;;;;;;5018712;28;20090;-77
2023/12/22 08:29:39;;;;;;;2.45;0.98;;;3.80;86.20;;;;;;5016745;28;20117;-77
2023/12/22 08:32:05;;;;;;;2.60;0.82;;;3.90;86.60;;;;;;5017425;28;20426;-76
2023/12/22 08:34:30;;;;;;;4.00;0.65;;;3.90;87.00;;;;;;5022050;28;20121;-77
2023/12/22 08:36:56;;;;;;;1.75;0.88;;;3.70;88.60;;;;;;5019645;28;20104;-77
2023/12/22 08:39:21;;;;;;;6.40;1.33;;;3.70;88.10;;;;;;5023593;28;20084;-77
2023/12/22 08:41:47;;;;;;;2.13;0.85;;;3.60;88.90;;;;;;5024342;28;20469;-77
2023/12/22 08:44:16;;;;;;;3.50;1.15;;;3.70;88.40;;;;;;5024706;28;20401;-75
2023/12/22 08:46:41;;;;;;;5.50;1.00;;;3.60;88.60;;;;;;5026598;28;20037;-77
2023/12/22 08:49:07;;;;;;;1.33;0.70;;;3.70;88.00;;;;;;5026906;28;20037;-77
2023/12/22 08:51:33;;;;;;;3.65;0.88;;;3.80;87.60;;;;;;5023140;28;20359;-77
2023/12/22 08:53:59;;;;;;;2.85;0.98;;;3.90;87.30;;;;;;5020002;28;20029;-76
2023/12/22 08:56:25;;;;;;;1.48;0.85;;;4.00;87.00;;;;;;5017517;28;20057;-77
2023/12/22 08:58:55;;;;;;;2.38;1.10;;;3.90;87.30;;;;;;5017326;28;20065;-78
2023/12/22 09:01:21;;;;;;;4.20;1.27;;;3.90;87.60;;;;;;5017434;28;20091;-77
2023/12/22 09:03:47;;;;;;;4.60;1.25;;;4.00;87.30;;;;;;5022019;28;20044;-77
2023/12/22 09:06:17;;;;;;;5.20;1.08;;;4.00;87.20;;;;;;5016182;28;20038;-78
2023/12/22 09:08:43;;;;;;;3.13;1.00;;;4.20;86.20;;;;;;5015925;28;20242;-76
2023/12/22 09:11:10;;;;;;;4.82;0.93;;;4.20;86.40;;;;;;5016737;28;20464;-77
2023/12/22 09:13:36;;;;;;;2.05;0.77;;;4.20;86.40;;;;;;5024197;28;20069;-78
2023/12/22 09:16:04;;;;;;;1.63;0.70;;;4.30;85.80;;;;;;5014277;28;20069;-78
2023/12/22 09:18:31;;;;;;;3.08;1.35;;;4.30;85.10;;;;;;5015673;28;20179;-78
2023/12/22 09:20:56;;;;;;;1.13;0.68;;;4.30;85.40;;;;;;5021652;28;20081;-78
2023/12/22 09:23:22;;;;;;;6.10;0.93;;;4.30;84.90;;;;;;5016210;28;20086;-78
2023/12/22 09:25:48;;;;;;;3.33;0.93;;;4.30;85.20;;;;;;5025206;28;20473;-78
2023/12/22 09:28:13;;;;;;;4.32;0.80;;;4.20;85.60;;;;;;5016963;28;20133;-78
2023/12/22 09:30:39;;;;;;;1.60;0.73;;;4.30;85.10;;;;;;5016685;28;20131;-78
2023/12/22 09:33:04;;;;;;;3.67;0.82;;;4.40;84.90;;;;;;5020353;28;20030;-78
2023/12/22 09:35:30;;;;;;;1.95;0.82;;;4.50;84.50;;;;;;5015840;28;20123;-78
2023/12/22 09:37:55;;;;;;;5.63;1.23;;;4.50;85.00;;;;;;5020291;28;20531;-78
2023/12/22 09:40:24;;;;;;;3.90;1.13;;;4.50;85.20;;;;;;5026791;28;20125;-78
2023/12/22 09:42:52;;;;;;;5.57;0.88;;;4.50;85.10;;;;;;5020618;28;20037;-77
2023/12/22 09:45:19;;;;;;;2.22;0.57;;;4.50;85.50;;;;;;5020016;28;20083;-79
2023/12/22 09:47:45;;;;;;;2.53;1.23;;;4.50;85.50;;;;;;5037174;28;20037;-79
2023/12/22 09:50:11;;;;;;;4.00;0.65;;;4.60;85.30;;;;;;5023428;28;20025;-78
2023/12/22 09:52:39;;;;;;;8.30;1.38;;;4.60;84.70;;;;;;5017783;28;20048;-78
2023/12/22 09:55:07;;;;;;;3.88;0.98;;;4.70;84.50;;;;;;5018088;28;20049;-79
2023/12/22 09:57:34;;;;;;;2.15;0.47;;;4.70;84.90;;;;;;5018320;28;20048;-78
2023/12/22 10:00:06;;;;;;;1.95;0.75;;;4.60;85.90;;;;;;5019565;28;20030;-77
2023/12/22 10:02:33;;;;;;;2.17;0.88;;;4.40;87.30;;;;;;5022155;28;20115;-78
2023/12/22 10:04:58;;;;;;;1.70;0.43;;;4.10;88.50;;;;;;5017108;28;20032;-77
2023/12/22 10:07:25;;;;;;;9.00;0.93;;;3.90;89.80;;;;;;5019746;28;20025;-77
2023/12/22 10:09:53;;;;;;;2.17;0.55;;;3.60;90.40;;;;;;5019383;28;20041;-76
2023/12/22 10:12:19;;;;;;;3.47;0.82;;;3.40;92.20;;;;;;5019508;28;20041;-77
2023/12/22 10:14:46;;;;;;;2.05;0.52;;;3.50;92.50;;;;;;5017337;28;20029;-75
2023/12/22 10:17:12;;;;;;;0.40;0.40;;;3.50;92.70;;;;;;5017162;28;20457;-76
2023/12/22 10:19:39;;;;;;;1.38;0.40;;;3.50;93.10;;;;;;5018580;28;20022;-77
2023/12/22 10:22:04;;;;;;;0.30;0.17;;;3.60;92.90;;;;;;5019120;28;20030;-77
2023/12/22 10:24:50;;;;;;;0.30;0.30;;;3.60;92.60;;;;;;5023780;28;20029;-77
2023/12/22 10:27:22;;;;;;;1.90;0.57;;;3.60;92.80;;;;;;5024294;28;20057;-77
2023/12/22 10:29:49;;;;;;;4.00;1.08;;;3.50;92.60;;;;;;5017411;28;20517;-77
2023/12/22 10:32:15;;;;;;;1.92;0.40;;;3.40;92.60;;;;;;5020917;28;20060;-77
2023/12/22 10:34:41;;;;;;;0.35;0.17;;;3.20;92.50;;;;;;5026832;28;20195;-76
2023/12/22 10:37:06;;;;;;;0.88;0.43;;;3.00;93.20;;;;;;5016446;28;20025;-76
2023/12/22 10:39:32;;;;;;;0.47;0.28;;;2.90;93.70;;;;;;5017730;28;20071;-75
2023/12/22 10:41:58;;;;;;;0.85;0.63;;;2.70;94.10;;;;;;5013481;28;20479;-76
2023/12/22 10:44:25;;;;;;;3.00;0.45;;;2.50;94.50;;;;;;5019389;28;20072;-75
2023/12/22 10:46:51;;;;;;;2.28;0.38;;;2.40;94.70;;;;;;5031137;28;20102;-75
2023/12/22 10:49:16;;;;;;;1.25;0.20;;;2.30;95.10;;;;;;5016190;28;20095;-76
2023/12/22 10:51:42;;;;;;;0.88;0.32;;;2.20;95.20;;;;;;5024328;28;20088;-76
2023/12/22 10:54:08;;;;;;;1.85;0.25;;;2.10;95.20;;;;;;5016897;28;20026;-76
2023/12/22 10:56:34;;;;;;;1.25;0.22;;;2.10;95.20;;;;;;5013247;28;20029;-76
2023/12/22 10:59:01;;;;;;;0.20;0.20;;;2.00;95.30;;;;;;5018840;28;20068;-75
2023/12/22 11:01:35;;;;;;;0.17;0.17;;;1.90;95.50;;;;;;5016621;28;20069;-75
2023/12/22 11:04:06;;;;;;;0.25;0.20;;;2.00;95.60;;;;;;5019206;28;20061;-76
2023/12/22 11:06:38;;;;;;;0.20;0.20;;;2.20;95.50;;;;;;5030114;28;20128;-76
2023/12/22 11:09:08;;;;;;;0.40;0.40;;;2.60;95.30;;;;;;5021577;28;20414;-75
2023/12/22 11:11:35;;;;;;;1.70;0.30;;;2.90;94.90;;;;;;5017187;28;20038;-75
2023/12/22 11:14:01;;;;;;;1.55;0.50;;;3.10;94.20;;;;;;5016120;28;20040;-77
2023/12/22 11:16:33;;;;;;;1.70;0.73;;;3.30;93.80;;;;;;5016819;28;20036;-77
2023/12/22 11:18:59;;;;;;;0.52;0.30;;;3.50;93.60;;;;;;5015254;28;20038;-77
2023/12/22 11:21:25;;;;;;;4.32;0.55;;;3.60;92.80;;;;;;5015912;28;20038;-76
2023/12/22 11:23:52;;;;;;;0.40;0.30;;;3.80;91.70;;;;;;5016311;28;20025;-78
2023/12/22 11:26:19;;;;;;;0.43;0.30;;;3.70;92.40;;;;;;5014703;28;20115;-77
2023/12/22 11:28:49;;;;;;;0.77;0.60;;;3.70;92.30;;;;;;5017974;28;20040;-77
2023/12/22 11:31:15;;;;;;;2.28;0.30;;;3.60;92.20;;;;;;5016971;28;20038;-76
2023/12/22 11:33:44;;;;;;;2.65;0.75;;;3.50;92.10;;;;;;5013264;28;20040;-77
2023/12/22 11:36:11;;;;;;;0.45;0.38;;;3.50;92.20;;;;;;5016056;28;20056;-73
2023/12/22 11:38:37;;;;;;;0.75;0.40;;;3.40;92.70;;;;;;5012341;28;20095;-77
2023/12/22 11:41:03;;;;;;;0.45;0.45;;;3.40;92.30;;;;;;5018440;28;20108;-76
2023/12/22 11:43:31;;;;;;;1.75;0.60;;;3.40;92.30;;;;;;5007431;28;20037;-78
2023/12/22 11:46:04;;;;;;;1.88;0.40;;;3.70;92.70;;;;;;5015064;28;20132;-77
2023/12/22 11:48:32;;;;;;;1.17;0.45;;;3.90;92.70;;;;;;5021609;28;20029;-78
2023/12/22 11:50:58;;;;;;;1.67;0.93;;;4.00;92.20;;;;;;5017532;28;20469;-77
2023/12/22 11:53:29;;;;;;;1.45;0.57;;;4.30;92.30;;;;;;5016115;28;20106;-77
2023/12/22 11:56:08;;;;;;;1.45;0.52;;;4.50;92.20;;;;;;5015734;28;20025;-78
2023/12/22 11:58:37;;;;;;;0.35;0.35;;;4.60;91.80;;;;;;5012288;28;20049;-77
2023/12/22 12:01:06;;;;;;;0.40;0.30;;;4.50;92.10;;;;;;5017382;28;20045;-79
2023/12/22 12:03:32;;;;;;;1.75;0.30;;;4.30;92.40;;;;;;5019751;28;20116;-79
2023/12/22 12:06:21;;;;;;;0.73;0.50;;;4.10;93.00;;;;;;5026194;28;20462;-79
2023/12/22 12:08:48;;;;;;;0.85;0.40;;;4.10;93.30;;;;;;5012221;28;20117;-78
2023/12/22 12:11:14;;;;;;;1.15;0.38;;;4.00;93.70;;;;;;5014522;28;20541;-77
2023/12/22 12:13:44;;;;;;;2.97;0.40;;;3.90;93.90;;;;;;5015729;28;20097;-76
2023/12/22 12:16:14;;;;;;;1.30;0.80;;;3.90;94.10;;;;;;5015833;28;20030;-77
2023/12/22 12:18:41;;;;;;;1.08;0.25;;;3.90;94.30;;;;;;5020559;28;20117;-77
2023/12/22 12:21:08;;;;;;;1.00;0.57;;;3.90;94.50;;;;;;5014666;28;20060;-76
2023/12/22 12:23:34;;;;;;;3.45;0.77;;;3.80;94.70;;;;;;5021882;28;20390;-76
2023/12/22 12:25:59;;;;;;;0.45;0.45;;;3.80;94.90;;;;;;5017619;28;20033;-77
2023/12/22 12:28:30;;;;;;;0.82;0.40;;;3.70;94.20;;;;;;5009107;28;20100;-76
2023/12/22 12:31:06;;;;;;;0.65;0.28;;;3.70;94.10;;;;;;5014809;28;20091;-77
2023/12/22 12:33:32;;;;;;;1.38;0.35;;;3.80;94.10;;;;;;5009901;28;20030;-77
2023/12/22 12:35:59;;;;;;;0.30;0.20;;;3.80;93.80;;;;;;5015821;28;20449;-76
2023/12/22 12:38:53;;;;;;;0.95;0.50;;;3.70;93.60;;;;;;5025007;28;20040;-76
2023/12/22 12:41:31;;;;;;;0.13;0.13;;;3.80;93.10;;;;;;5015872;28;20493;-76
2023/12/22 12:43:58;;;;;;;0.50;0.43;;;3.80;93.20;;;;;;5021756;28;20045;-76
2023/12/22 12:46:31;;;;;;;0.63;0.40;;;3.80;92.90;;;;;;5026067;28;20030;-77
2023/12/22 12:49:08;;;;;;;0.40;0.28;;;3.80;93.00;;;;;;5019579;28;20100;-76
2023/12/22 12:51:37;;;;;;;0.65;0.25;;;3.80;92.90;;;;;;5015828;28;20045;-78
2023/12/22 12:54:03;;;;;;;0.80;0.20;;;3.70;93.40;;;;;;5021002;28;20452;-75
2023/12/22 12:56:29;;;;;;;0.13;0.10;;;3.80;93.60;;;;;;5017786;28;20184;-77